Time;durP1;ratioP1;P1;durP2;ratioP2;P2;SDS_P1;SDS_P2;PMS_P1;PMS_P2;Temp;Humidity;BMP_temperature;BMP_pressure;BME280_temperature;BME280_humidity;BME280_pressure;Samples;Min_cycle;Max_cycle;Signal;HPM_P1;HPM_P2
2021/09/10 00:02:08;;;;;;;0.40;0.10;;;;;;;16.97;63.37;100525.21;112287;1204;137905;-76
2021/09/10 00:04:35;;;;;;;0.40;0.10;;;;;;;16.92;63.40;100525.99;112529;1196;95213;-79
2021/09/10 00:07:01;;;;;;;0.40;0.10;;;;;;;16.87;63.47;100524.02;112527;1201;95655;-77
2021/09/10 00:09:28;;;;;;;0.40;0.10;;;;;;;16.90;63.48;100525.37;112403;1196;138375;-76
2021/09/10 00:11:55;;;;;;;0.40;0.10;;;;;;;17.03;63.14;100525.79;112456;1199;94786;-77
2021/09/10 00:14:21;;;;;;;0.40;0.10;;;;;;;17.11;62.98;100520.56;112450;1195;138041;-79
2021/09/10 00:16:48;;;;;;;0.40;0.10;;;;;;;17.13;62.85;100517.91;112329;1197;95278;-78
2021/09/10 00:19:15;;;;;;;0.40;0.10;;;;;;;17.03;62.98;100519.84;112368;1203;94803;-76
2021/09/10 00:21:41;;;;;;;0.40;0.10;;;;;;;17.11;62.85;100513.16;112360;1197;138029;-76
2021/09/10 00:24:11;;;;;;;0.40;0.10;;;;;;;17.06;62.74;100521.16;112537;1198;95798;-78
2021/09/10 00:26:38;;;;;;;0.40;0.10;;;;;;;16.92;63.02;100520.77;112417;1196;138213;-76
2021/09/10 00:29:04;;;;;;;0.40;0.10;;;;;;;16.79;63.31;100519.95;112219;1199;94986;-76
2021/09/10 00:31:34;;;;;;;0.40;0.10;;;;;;;16.68;63.70;100523.73;112326;1196;138198;-75
2021/09/10 00:34:00;;;;;;;0.40;0.10;;;;;;;16.64;63.88;100520.73;112357;1197;95334;-79
2021/09/10 00:36:27;;;;;;;0.40;0.10;;;;;;;16.54;64.06;100519.59;112445;1196;94959;-76
2021/09/10 00:38:54;;;;;;;0.40;0.10;;;;;;;16.45;64.37;100522.93;112341;1196;137583;-77
2021/09/10 00:41:20;;;;;;;0.40;0.10;;;;;;;16.42;64.56;100522.55;112406;1198;94804;-77
2021/09/10 00:43:47;;;;;;;0.40;0.10;;;;;;;16.42;64.43;100521.10;112489;1196;138359;-78
2021/09/10 00:46:14;;;;;;;0.40;0.10;;;;;;;16.46;64.46;100514.95;112466;1204;94897;-77
2021/09/10 00:48:41;;;;;;;0.40;0.10;;;;;;;16.53;64.15;100512.09;112473;1197;95238;-76
2021/09/10 00:51:08;;;;;;;0.40;0.10;;;;;;;16.56;64.20;100515.38;112298;1196;138213;-77
2021/09/10 00:53:35;;;;;;;0.40;0.10;;;;;;;16.58;64.03;100513.13;112566;1200;96102;-76
2021/09/10 00:56:02;;;;;;;0.40;0.10;;;;;;;16.62;63.91;100512.41;112408;1198;138004;-76
2021/09/10 00:58:29;;;;;;;0.40;0.10;;;;;;;16.59;63.82;100510.20;112503;1196;97439;-77
2021/09/10 01:00:56;;;;;;;0.40;0.10;;;;;;;16.64;63.74;100510.30;112415;1196;94917;-76
2021/09/10 01:03:22;;;;;;;0.40;0.10;;;;;;;16.65;63.62;100512.10;112447;1200;137925;-73
2021/09/10 01:05:57;;;;;;;0.40;0.10;;;;;;;16.62;63.58;100512.39;112596;1204;94900;-72
2021/09/10 01:08:26;;;;;;;0.40;0.10;;;;;;;16.60;63.58;100515.20;112291;1197;137384;-72
2021/09/10 01:10:53;;;;;;;0.40;0.10;;;;;;;16.52;63.59;100511.45;112543;1204;95367;-72
2021/09/10 01:13:22;;;;;;;0.40;0.10;;;;;;;16.47;63.82;100507.20;112512;1196;94932;-71
2021/09/10 01:15:49;;;;;;;0.40;0.10;;;;;;;16.54;63.69;100507.42;112426;1200;137864;-71
2021/09/10 01:18:16;;;;;;;0.40;0.10;;;;;;;16.59;63.44;100508.61;112626;1196;95094;-71
2021/09/10 01:20:42;;;;;;;0.40;0.10;;;;;;;16.48;63.53;100509.87;112367;1201;137373;-71
2021/09/10 01:23:09;;;;;;;0.40;0.10;;;;;;;16.33;63.96;100508.27;112564;1203;94838;-71
2021/09/10 01:25:36;;;;;;;0.40;0.10;;;;;;;16.25;64.08;100507.04;112486;1204;138723;-70
2021/09/10 01:28:02;;;;;;;0.40;0.10;;;;;;;16.23;64.13;100507.30;112709;1204;95014;-71
2021/09/10 01:30:34;;;;;;;0.40;0.10;;;;;;;16.17;64.39;100508.84;112588;1197;94768;-71
2021/09/10 01:33:04;;;;;;;0.40;0.10;;;;;;;16.10;64.56;100508.45;112482;1196;137394;-71
2021/09/10 01:35:31;;;;;;;0.40;0.10;;;;;;;16.07;64.53;100508.98;112441;1198;108540;-72
2021/09/10 01:37:58;;;;;;;0.40;0.10;;;;;;;16.02;64.66;100509.74;112484;1196;138789;-72
2021/09/10 01:40:24;;;;;;;0.40;0.10;;;;;;;15.97;64.81;100509.23;112570;1199;96909;-72
2021/09/10 01:42:52;;;;;;;0.40;0.10;;;;;;;15.91;64.98;100507.38;112577;1199;95502;-72
2021/09/10 01:45:19;;;;;;;0.40;0.20;;;;;;;15.83;65.16;100501.30;112320;1196;137710;-71
2021/09/10 01:47:47;;;;;;;0.40;0.10;;;;;;;15.80;65.21;100501.40;112567;1204;95385;-71
2021/09/10 01:50:17;;;;;;;0.40;0.10;;;;;;;15.83;65.25;100499.53;112430;1198;138243;-71
2021/09/10 01:52:44;;;;;;;0.40;0.10;;;;;;;15.80;65.20;100498.92;112432;1198;94925;-71
2021/09/10 01:55:12;;;;;;;0.40;0.10;;;;;;;15.77;65.31;100497.61;112473;1204;94906;-71
2021/09/10 01:57:41;;;;;;;0.40;0.10;;;;;;;15.79;65.28;100495.89;112374;1196;139244;-70
2021/09/10 02:00:07;;;;;;;0.40;0.10;;;;;;;15.76;65.29;100494.79;112397;1205;95185;-72
2021/09/10 02:02:34;;;;;;;0.40;0.10;;;;;;;15.75;65.40;100498.80;112396;1196;137654;-72
2021/09/10 02:05:01;;;;;;;0.40;0.10;;;;;;;15.68;65.47;100498.90;112594;1196;94608;-71
2021/09/10 02:07:28;;;;;;;0.40;0.20;;;;;;;15.64;65.58;100494.98;112476;1204;137832;-71
2021/09/10 02:09:55;;;;;;;0.40;0.10;;;;;;;15.61;65.75;100496.02;112554;1196;94819;-71
2021/09/10 02:12:22;;;;;;;0.40;0.10;;;;;;;15.59;65.80;100492.86;112636;1196;95591;-71
2021/09/10 02:14:48;;;;;;;0.40;0.10;;;;;;;15.56;65.81;100494.08;112325;1196;138033;-71
2021/09/10 02:17:15;;;;;;;0.40;0.20;;;;;;;15.50;66.04;100496.35;112573;1197;94910;-71
2021/09/10 02:19:42;;;;;;;0.40;0.20;;;;;;;15.52;65.94;100494.27;112337;1197;139242;-71
2021/09/10 02:22:08;;;;;;;0.40;0.10;;;;;;;15.53;65.92;100494.59;112580;1196;94929;-71
2021/09/10 02:24:35;;;;;;;0.40;0.10;;;;;;;15.52;65.98;100495.52;112593;1195;94918;-71
2021/09/10 02:27:02;;;;;;;0.40;0.20;;;;;;;15.46;66.03;100494.52;112574;1203;137821;-71
2021/09/10 02:29:29;;;;;;;0.40;0.20;;;;;;;15.44;66.22;100496.41;112398;1198;108726;-71
2021/09/10 02:31:55;;;;;;;0.40;0.20;;;;;;;15.42;66.20;100497.25;112485;1203;138225;-71
2021/09/10 02:34:23;;;;;;;0.40;0.10;;;;;;;15.44;66.13;100493.19;112505;1196;94853;-73
2021/09/10 02:36:49;;;;;;;0.40;0.20;;;;;;;15.43;66.10;100494.51;112607;1196;94929;-72
2021/09/10 02:39:16;;;;;;;0.40;0.20;;;;;;;15.35;66.29;100492.86;112477;1196;138037;-72
2021/09/10 02:41:42;;;;;;;0.40;0.20;;;;;;;15.37;66.26;100492.79;112440;1198;95428;-72
2021/09/10 02:44:09;;;;;;;0.40;0.20;;;;;;;15.40;66.08;100488.90;112263;1198;137926;-72
2021/09/10 02:46:44;;;;;;;0.40;0.20;;;;;;;15.38;65.98;100488.61;112638;1197;94862;-72
2021/09/10 02:49:11;;;;;;;0.40;0.20;;;;;;;15.36;66.16;100485.85;112564;1198;94838;-72
2021/09/10 02:51:37;;;;;;;0.40;0.10;;;;;;;15.43;66.07;100488.78;112450;1196;137994;-72
2021/09/10 02:54:04;;;;;;;0.40;0.20;;;;;;;15.46;65.84;100482.90;112648;1195;94824;-71
2021/09/10 02:56:31;;;;;;;0.40;0.10;;;;;;;15.55;65.62;100486.82;112535;1196;137315;-71
2021/09/10 02:58:57;;;;;;;0.40;0.20;;;;;;;15.66;65.20;100488.25;112641;1196;94833;-71
2021/09/10 03:01:24;;;;;;;0.40;0.10;;;;;;;15.78;64.92;100489.36;112500;1203;94887;-72
2021/09/10 03:03:51;;;;;;;0.40;0.20;;;;;;;15.81;64.76;100485.63;112536;1196;137809;-71
2021/09/10 03:06:18;;;;;;;0.40;0.20;;;;;;;15.76;64.79;100486.52;112561;1196;94941;-72
2021/09/10 03:08:44;;;;;;;0.40;0.20;;;;;;;15.62;64.97;100484.71;112514;1198;137235;-72
2021/09/10 03:11:12;;;;;;;0.40;0.20;;;;;;;15.53;65.31;100484.89;112368;1203;94808;-72
2021/09/10 03:13:38;;;;;;;0.40;0.20;;;;;;;15.49;65.38;100484.90;112397;1195;139458;-71
2021/09/10 03:16:05;;;;;;;0.40;0.10;;;;;;;15.59;65.25;100485.38;112676;1203;95305;-71
2021/09/10 03:18:32;;;;;;;0.40;0.10;;;;;;;15.69;64.85;100482.03;112602;1198;109513;-71
2021/09/10 03:20:59;;;;;;;0.40;0.20;;;;;;;15.73;64.66;100487.24;112316;1196;138490;-72
2021/09/10 03:23:25;;;;;;;0.40;0.20;;;;;;;15.65;64.76;100485.82;112569;1196;95291;-71
2021/09/10 03:25:53;;;;;;;0.40;0.10;;;;;;;15.70;64.68;100483.42;112428;1203;137805;-71
2021/09/10 03:28:20;;;;;;;0.40;0.20;;;;;;;15.65;64.69;100482.23;112599;1195;94922;-71
2021/09/10 03:30:46;;;;;;;0.40;0.20;;;;;;;15.53;64.87;100486.33;112555;1203;94851;-71
2021/09/10 03:33:13;;;;;;;0.40;0.20;;;;;;;15.43;65.05;100488.95;112475;1204;137671;-71
2021/09/10 03:35:39;;;;;;;0.40;0.20;;;;;;;15.34;65.27;100491.49;112636;1203;94974;-71
2021/09/10 03:38:06;;;;;;;0.40;0.20;;;;;;;15.27;65.44;100489.11;112471;1204;137901;-71
2021/09/10 03:40:35;;;;;;;0.40;0.20;;;;;;;15.21;65.75;100491.18;112532;1196;94870;-71
2021/09/10 03:43:06;;;;;;;0.40;0.20;;;;;;;15.11;65.94;100489.27;112768;1196;95108;-71
2021/09/10 03:45:33;;;;;;;0.40;0.20;;;;;;;15.04;66.13;100483.32;112495;1196;138054;-72
2021/09/10 03:48:00;;;;;;;0.40;0.10;;;;;;;15.00;66.20;100482.26;112415;1198;94911;-71
2021/09/10 03:50:27;;;;;;;0.40;0.20;;;;;;;14.95;66.43;100480.17;112256;1197;137376;-71
2021/09/10 03:52:54;;;;;;;0.40;0.20;;;;;;;14.88;66.71;100478.28;112428;1204;94989;-71
2021/09/10 03:55:21;;;;;;;0.40;0.20;;;;;;;14.88;66.73;100480.26;112506;1197;95470;-71
2021/09/10 03:57:48;;;;;;;0.40;0.10;;;;;;;14.92;66.62;100481.36;112410;1196;137692;-71
2021/09/10 04:00:14;;;;;;;0.40;0.20;;;;;;;14.94;66.58;100481.09;112561;1198;94874;-71
2021/09/10 04:02:41;;;;;;;0.40;0.20;;;;;;;14.89;66.78;100482.21;112282;1198;137715;-71
2021/09/10 04:05:08;;;;;;;0.40;0.20;;;;;;;14.84;66.80;100484.71;112559;1196;94900;-72
2021/09/10 04:07:35;;;;;;;0.40;0.10;;;;;;;14.84;66.80;100480.42;112509;1195;138192;-70
2021/09/10 04:10:02;;;;;;;0.40;0.20;;;;;;;14.84;66.89;100485.23;112546;1197;94810;-71
2021/09/10 04:12:29;;;;;;;0.40;0.20;;;;;;;14.79;67.01;100485.14;112569;1195;95333;-71
2021/09/10 04:14:55;;;;;;;0.40;0.20;;;;;;;14.75;67.10;100486.73;112500;1203;137920;-71
2021/09/10 04:17:22;;;;;;;0.40;0.20;;;;;;;14.74;67.17;100487.11;112666;1195;94853;-71
2021/09/10 04:19:49;;;;;;;0.40;0.20;;;;;;;14.73;67.17;100490.36;112402;1196;137830;-71
2021/09/10 04:22:16;;;;;;;0.40;0.20;;;;;;;14.67;67.33;100486.68;112670;1195;95373;-71
2021/09/10 04:24:42;;;;;;;0.40;0.20;;;;;;;14.61;67.40;100490.31;112573;1203;94836;-71
2021/09/10 04:27:09;;;;;;;0.40;0.20;;;;;;;14.61;67.49;100491.38;112501;1196;137977;-71
2021/09/10 04:29:35;;;;;;;0.40;0.20;;;;;;;14.62;67.55;100490.98;112665;1196;94830;-71
2021/09/10 04:32:02;;;;;;;0.40;0.20;;;;;;;14.59;67.51;100487.35;112558;1198;138349;-72
2021/09/10 04:34:29;;;;;;;0.40;0.20;;;;;;;14.54;67.72;100483.08;112623;1196;94844;-72
2021/09/10 04:36:55;;;;;;;0.40;0.20;;;;;;;14.57;67.70;100488.84;112572;1196;94807;-71
2021/09/10 04:39:22;;;;;;;0.40;0.20;;;;;;;14.61;67.66;100489.95;112486;1203;137986;-71
2021/09/10 04:41:49;;;;;;;0.40;0.20;;;;;;;14.71;67.49;100494.38;112528;1196;95447;-70
2021/09/10 04:44:15;;;;;;;0.40;0.20;;;;;;;14.77;67.32;100496.09;112492;1196;136943;-72
2021/09/10 04:46:42;;;;;;;0.40;0.20;;;;;;;14.78;67.36;100494.63;112559;1195;108715;-72
2021/09/10 04:49:09;;;;;;;0.40;0.20;;;;;;;14.72;67.38;100493.61;112416;1197;94916;-72
2021/09/10 04:51:35;;;;;;;0.40;0.20;;;;;;;14.69;67.52;100492.84;112416;1203;137674;-72
2021/09/10 04:54:02;;;;;;;0.40;0.20;;;;;;;14.69;67.48;100493.19;112411;1198;94888;-71
2021/09/10 04:56:29;;;;;;;0.40;0.20;;;;;;;14.66;67.73;100494.43;112441;1197;137758;-72
2021/09/10 04:58:56;;;;;;;0.40;0.20;;;;;;;14.65;67.71;100489.63;112586;1196;108731;-71
2021/09/10 05:01:22;;;;;;;0.40;0.10;;;;;;;14.64;67.95;100491.80;112592;1203;94871;-71
2021/09/10 05:03:50;;;;;;;0.40;0.20;;;;;;;14.64;67.93;100488.95;112573;1196;137683;-72
2021/09/10 05:06:17;;;;;;;0.40;0.20;;;;;;;14.65;68.00;100491.81;112528;1204;96287;-72
2021/09/10 05:08:45;;;;;;;0.40;0.20;;;;;;;14.71;67.90;100492.06;112458;1196;137902;-72
2021/09/10 05:11:12;;;;;;;0.40;0.20;;;;;;;14.80;67.73;100495.08;112477;1196;95693;-72
2021/09/10 05:13:39;;;;;;;0.40;0.20;;;;;;;14.87;67.60;100492.27;112351;1197;137845;-72
2021/09/10 05:16:05;;;;;;;0.40;0.10;;;;;;;14.93;67.51;100492.21;112547;1195;94906;-72
2021/09/10 05:18:32;;;;;;;0.40;0.20;;;;;;;14.94;67.48;100492.17;112513;1196;94840;-72
2021/09/10 05:20:59;;;;;;;0.40;0.20;;;;;;;15.00;67.41;100492.44;112380;1197;138482;-72
2021/09/10 05:23:26;;;;;;;0.40;0.20;;;;;;;15.06;67.31;100490.58;112610;1197;109485;-71
2021/09/10 05:25:54;;;;;;;0.40;0.20;;;;;;;15.16;67.24;100491.58;112498;1197;137960;-72
2021/09/10 05:28:20;;;;;;;0.40;0.20;;;;;;;15.21;67.24;100493.30;112565;1196;94931;-72
2021/09/10 05:30:47;;;;;;;0.40;0.20;;;;;;;15.26;67.17;100491.66;112455;1204;94807;-72
2021/09/10 05:33:14;;;;;;;0.40;0.20;;;;;;;15.38;66.93;100493.48;112395;1197;138551;-71
2021/09/10 05:35:40;;;;;;;0.40;0.20;;;;;;;15.51;66.32;100493.96;112510;1204;95374;-71
2021/09/10 05:38:07;;;;;;;0.40;0.20;;;;;;;15.55;66.13;100497.14;112356;1196;137467;-71
2021/09/10 05:40:36;;;;;;;0.40;0.20;;;;;;;15.53;66.02;100498.86;112587;1196;95405;-73
2021/09/10 05:43:03;;;;;;;0.40;0.20;;;;;;;15.57;65.90;100498.16;112443;1196;108689;-72
2021/09/10 05:45:32;;;;;;;0.40;0.10;;;;;;;15.62;65.93;100501.32;112343;1197;137832;-72
2021/09/10 05:47:59;;;;;;;0.40;0.10;;;;;;;15.71;66.03;100499.30;112421;1197;94848;-73
2021/09/10 05:50:25;;;;;;;0.40;0.20;;;;;;;15.71;65.74;100504.52;112369;1197;137763;-72
2021/09/10 05:52:52;;;;;;;0.40;0.20;;;;;;;15.71;65.75;100506.09;112573;1196;95274;-72
2021/09/10 05:55:18;;;;;;;0.40;0.10;;;;;;;15.78;65.63;100504.20;112483;1204;95050;-72
2021/09/10 05:57:45;;;;;;;0.40;0.20;;;;;;;15.84;65.72;100506.08;112426;1196;137567;-71
2021/09/10 06:00:12;;;;;;;0.40;0.20;;;;;;;15.88;65.70;100507.69;112497;1196;94820;-72
2021/09/10 06:02:39;;;;;;;0.40;0.20;;;;;;;15.98;65.73;100510.95;112332;1198;137532;-71
2021/09/10 06:05:16;;;;;;;0.40;0.10;;;;;;;16.14;65.40;100508.83;112430;1198;108834;-72
2021/09/10 06:07:42;;;;;;;0.40;0.20;;;;;;;16.24;65.25;100508.86;112408;1196;138915;-73
2021/09/10 06:10:12;;;;;;;0.40;0.10;;;;;;;16.37;64.97;100510.20;112546;1204;94839;-71
2021/09/10 06:12:42;;;;;;;0.40;0.10;;;;;;;16.46;65.08;100515.33;112559;1196;94792;-71
2021/09/10 06:15:09;;;;;;;0.40;0.20;;;;;;;16.57;65.15;100511.02;112417;1204;138146;-71
2021/09/10 06:17:36;;;;;;;0.40;0.20;;;;;;;16.63;64.55;100515.73;112669;1196;109786;-71
2021/09/10 06:20:03;;;;;;;0.40;0.10;;;;;;;16.70;64.54;100517.76;112489;1196;137686;-71
2021/09/10 06:22:31;;;;;;;0.40;0.10;;;;;;;16.80;64.23;100518.48;112485;1196;95447;-71
2021/09/10 06:25:02;;;;;;;0.40;0.20;;;;;;;16.88;63.98;100520.42;112493;1196;94845;-72
2021/09/10 06:27:30;;;;;;;0.40;0.10;;;;;;;17.01;63.87;100518.93;112406;1197;138360;-72
2021/09/10 06:29:56;;;;;;;0.40;0.10;;;;;;;17.16;63.79;100514.20;112549;1198;94840;-71
2021/09/10 06:32:26;;;;;;;0.40;0.10;;;;;;;17.35;63.61;100517.52;112431;1196;137385;-71
2021/09/10 06:34:53;;;;;;;0.40;0.10;;;;;;;17.48;62.73;100518.60;112535;1196;107804;-71
2021/09/10 06:37:20;;;;;;;0.40;0.10;;;;;;;17.56;62.37;100517.27;112491;1196;94801;-72
2021/09/10 06:39:48;;;;;;;0.40;0.10;;;;;;;17.69;61.83;100517.11;112432;1197;137345;-71
2021/09/10 06:42:14;;;;;;;0.40;0.10;;;;;;;17.81;61.51;100517.72;112514;1198;94992;-71
2021/09/10 06:44:41;;;;;;;0.40;0.10;;;;;;;17.89;61.45;100516.56;112276;1198;137297;-71
2021/09/10 06:47:08;;;;;;;0.40;0.10;;;;;;;17.97;60.69;100518.70;112516;1197;94806;-71
2021/09/10 06:49:38;;;;;;;0.40;0.10;;;;;;;18.05;60.67;100515.35;112399;1205;138435;-71
2021/09/10 06:52:06;;;;;;;0.40;0.10;;;;;;;18.19;59.77;100517.85;112458;1197;94936;-71
2021/09/10 06:54:32;;;;;;;0.40;0.10;;;;;;;18.29;59.52;100521.04;112455;1198;94841;-71
2021/09/10 06:56:59;;;;;;;0.40;0.10;;;;;;;18.33;59.69;100521.56;112414;1198;138207;-71
2021/09/10 06:59:25;;;;;;;0.40;0.10;;;;;;;18.40;58.98;100517.57;112530;1198;94827;-71
2021/09/10 07:01:52;;;;;;;0.40;0.10;;;;;;;18.52;59.35;100520.64;112427;1197;137508;-71
2021/09/10 07:04:19;;;;;;;0.40;0.10;;;;;;;18.56;59.13;100523.10;112641;1196;95404;-72
2021/09/10 07:06:46;;;;;;;0.40;0.10;;;;;;;18.66;58.63;100523.61;112493;1198;94922;-71
2021/09/10 07:09:13;;;;;;;0.40;0.10;;;;;;;18.76;58.23;100527.53;112513;1203;137845;-71
2021/09/10 07:11:39;;;;;;;0.40;0.10;;;;;;;18.89;58.10;100529.85;112657;1196;94857;-71
2021/09/10 07:14:06;;;;;;;0.40;0.10;;;;;;;18.99;57.21;100529.06;112534;1196;137689;-71
2021/09/10 07:16:33;;;;;;;0.40;0.10;;;;;;;19.04;57.55;100533.64;112574;1197;94963;-71
2021/09/10 07:19:00;;;;;;;0.40;0.10;;;;;;;19.08;58.14;100536.31;112597;1203;108736;-72
2021/09/10 07:21:27;;;;;;;0.40;0.10;;;;;;;19.10;58.28;100537.27;112425;1197;137553;-71
2021/09/10 07:23:53;;;;;;;0.40;0.10;;;;;;;19.15;57.84;100534.95;112541;1196;95762;-71
2021/09/10 07:26:20;;;;;;;0.40;0.10;;;;;;;19.24;57.31;100535.52;112547;1198;139584;-73
2021/09/10 07:28:47;;;;;;;0.40;0.10;;;;;;;19.32;56.97;100537.95;112465;1198;96762;-72
2021/09/10 07:31:14;;;;;;;0.40;0.10;;;;;;;19.43;57.53;100538.18;112595;1197;94851;-71
2021/09/10 07:33:42;;;;;;;0.40;0.10;;;;;;;19.52;56.24;100538.46;112388;1197;137301;-71
2021/09/10 07:36:09;;;;;;;0.40;0.10;;;;;;;19.61;56.32;100540.68;112655;1196;94899;-72
2021/09/10 07:38:36;;;;;;;0.40;0.10;;;;;;;19.73;56.39;100539.06;112498;1203;137309;-72
2021/09/10 07:41:04;;;;;;;0.40;0.10;;;;;;;19.83;56.90;100542.04;112619;1195;93894;-72
2021/09/10 07:43:31;;;;;;;0.40;0.10;;;;;;;19.95;56.19;100549.39;112427;1203;137552;-71
2021/09/10 07:45:59;;;;;;;0.40;0.10;;;;;;;20.02;55.85;100548.96;112609;1203;94926;-71
2021/09/10 07:48:26;;;;;;;0.40;0.10;;;;;;;20.07;55.39;100550.27;112513;1204;95307;-71
2021/09/10 07:50:52;;;;;;;0.40;0.10;;;;;;;20.13;55.40;100548.64;112480;1196;137363;-71
2021/09/10 07:53:19;;;;;;;0.40;0.10;;;;;;;20.22;55.47;100552.52;112641;1203;94821;-71
2021/09/10 07:55:46;;;;;;;0.40;0.10;;;;;;;20.36;54.78;100556.02;112372;1203;137523;-72
2021/09/10 07:58:12;;;;;;;0.40;0.00;;;;;;;20.46;55.14;100561.08;112728;1203;94836;-71
2021/09/10 08:00:40;;;;;;;0.40;0.10;;;;;;;20.56;54.39;100565.88;112614;1203;95344;-71
2021/09/10 08:03:08;;;;;;;0.40;0.10;;;;;;;20.63;53.64;100565.27;112432;1204;137258;-73
2021/09/10 08:05:43;;;;;;;0.40;0.10;;;;;;;20.72;53.15;100566.14;112619;1193;137904;-73
2021/09/10 08:08:10;;;;;;;0.40;0.10;;;;;;;20.82;52.99;100563.83;112580;1204;94941;-73
2021/09/10 08:10:36;;;;;;;0.40;0.10;;;;;;;21.03;53.09;100559.19;112708;1198;94819;-72
2021/09/10 08:13:03;;;;;;;0.40;0.10;;;;;;;21.36;52.23;100560.40;112532;1204;137501;-72
2021/09/10 08:15:30;;;;;;;0.40;0.00;;;;;;;21.43;51.25;100557.02;112679;1204;94825;-72
2021/09/10 08:17:57;;;;;;;0.40;0.10;;;;;;;21.50;50.60;100551.66;112562;1204;137444;-72
2021/09/10 08:20:26;;;;;;;0.40;0.10;;;;;;;21.57;51.09;100549.02;112709;1196;94830;-72
2021/09/10 08:22:52;;;;;;;0.40;0.00;;;;;;;21.67;50.70;100548.11;112341;1198;137553;-72
2021/09/10 08:25:20;;;;;;;0.40;0.10;;;;;;;21.73;49.66;100546.45;112696;1198;95332;-71
2021/09/10 08:27:46;;;;;;;0.40;0.10;;;;;;;21.78;49.18;100546.11;112732;1196;95273;-71
2021/09/10 08:30:13;;;;;;;0.40;0.00;;;;;;;21.89;48.94;100540.46;112613;1199;137533;-72
2021/09/10 08:32:40;;;;;;;0.40;0.00;;;;;;;21.97;48.69;100539.86;112703;1204;94937;-72
2021/09/10 08:35:07;;;;;;;0.40;0.00;;;;;;;22.11;50.20;100537.04;112343;1198;136478;-71
2021/09/10 08:37:33;;;;;;;0.40;0.10;;;;;;;22.23;49.55;100535.52;112675;1198;95284;-71
2021/09/10 08:40:02;;;;;;;0.40;0.00;;;;;;;22.30;48.28;100536.75;112623;1197;94839;-73
2021/09/10 08:42:28;;;;;;;0.40;0.10;;;;;;;22.41;48.38;100533.98;112628;1204;137804;-72
2021/09/10 08:44:55;;;;;;;0.40;0.00;;;;;;;22.47;48.39;100534.84;112657;1198;94830;-71
2021/09/10 08:47:23;;;;;;;0.40;0.10;;;;;;;22.50;47.55;100532.25;112593;1198;137577;-71
2021/09/10 08:49:52;;;;;;;0.40;0.00;;;;;;;22.61;47.84;100536.32;112622;1199;94950;-72
2021/09/10 08:52:19;;;;;;;0.40;0.00;;;;;;;22.72;47.22;100537.64;112763;1204;95564;-72
2021/09/10 08:54:45;;;;;;;0.40;0.00;;;;;;;22.77;46.65;100534.02;112550;1198;136590;-71
2021/09/10 08:57:12;;;;;;;0.40;0.00;;;;;;;22.89;47.14;100535.55;112467;1200;95313;-72
2021/09/10 08:59:39;;;;;;;0.40;0.00;;;;;;;22.95;46.76;100534.84;112606;1204;137331;-70
2021/09/10 09:02:06;;;;;;;0.40;0.00;;;;;;;23.02;46.11;100534.13;112634;1197;94886;-71
2021/09/10 09:04:35;;;;;;;0.40;0.00;;;;;;;23.13;46.48;100532.05;112697;1204;94989;-73
2021/09/10 09:07:07;;;;;;;0.40;0.10;;;;;;;23.34;44.97;100531.13;112538;1199;137751;-72
2021/09/10 09:09:44;;;;;;;0.40;0.00;;;;;;;24.22;44.53;100529.66;112728;1197;94967;-73
2021/09/10 09:12:29;;;;;;;0.40;0.00;;;;;;;25.94;41.60;100531.59;112554;1198;137418;-72
2021/09/10 09:14:59;;;;;;;0.40;0.00;;;;;;;27.85;36.22;100531.92;112639;1200;108907;-73
2021/09/10 09:17:27;;;;;;;0.40;0.00;;;;;;;29.40;34.71;100533.74;112591;1197;137537;-73
2021/09/10 09:20:20;;;;;;;0.40;0.00;;;;;;;30.98;32.29;100529.60;112679;1197;95329;-74
2021/09/10 09:23:01;;;;;;;0.40;0.00;;;;;;;32.00;29.73;100527.75;112694;1196;94819;-73
2021/09/10 09:25:36;;;;;;;0.40;0.00;;;;;;;32.08;30.13;100527.31;112589;1204;137170;-73
2021/09/10 09:28:21;;;;;;;0.40;0.00;;;;;;;32.33;28.87;100531.09;112647;1198;101190;-73
2021/09/10 09:30:53;;;;;;;0.40;0.00;;;;;;;31.73;30.30;100530.74;112624;1198;137481;-73
2021/09/10 09:33:24;;;;;;;0.40;0.00;;;;;;;31.18;30.50;100535.44;112723;1198;94836;-73
2021/09/10 09:35:55;;;;;;;0.40;0.00;;;;;;;30.61;31.44;100528.31;112591;1198;137547;-73
2021/09/10 09:38:27;;;;;;;0.40;0.00;;;;;;;30.66;30.50;100528.00;112656;1197;101033;-74
2021/09/10 09:40:56;;;;;;;0.40;0.00;;;;;;;31.27;29.72;100524.22;112749;1196;95348;-72
2021/09/10 09:43:28;;;;;;;0.40;0.00;;;;;;;31.56;29.74;100523.73;112629;1204;137674;-73
2021/09/10 09:45:56;;;;;;;0.40;0.00;;;;;;;31.93;28.89;100521.69;112675;1203;99963;-73
2021/09/10 09:48:28;;;;;;;0.40;0.00;;;;;;;32.77;27.84;100520.25;112615;1196;137268;-73
2021/09/10 09:50:57;;;;;;;0.40;0.00;;;;;;;34.38;26.55;100519.23;112725;1198;94827;-73
2021/09/10 09:53:23;;;;;;;0.40;0.00;;;;;;;35.66;24.92;100517.11;112602;1204;137455;-73
2021/09/10 09:55:50;;;;;;;0.40;0.00;;;;;;;36.28;24.02;100519.44;112645;1204;94940;-72
2021/09/10 09:58:17;;;;;;;0.40;0.00;;;;;;;37.17;22.96;100523.16;112689;1204;95032;-72
2021/09/10 10:00:46;;;;;;;0.40;0.00;;;;;;;38.03;22.87;100522.83;112575;1199;137366;-72
2021/09/10 10:03:13;;;;;;;0.40;0.00;;;;;;;39.00;22.53;100518.69;112669;1199;94831;-73
2021/09/10 10:06:01;;;;;;;0.40;0.00;;;;;;;39.83;20.81;100519.71;112559;1199;137533;-73
2021/09/10 10:08:40;;;;;;;0.40;0.00;;;;;;;40.55;19.31;100514.29;112521;1200;100748;-73
2021/09/10 10:11:09;;;;;;;0.40;0.00;;;;;;;41.22;18.28;100517.65;112604;1204;136903;-74
2021/09/10 10:13:36;;;;;;;0.40;0.00;;;;;;;41.48;17.84;100518.46;112717;1197;94873;-72
2021/09/10 10:16:03;;;;;;;0.40;0.00;;;;;;;41.65;17.27;100519.66;112709;1203;94842;-73
2021/09/10 10:18:47;;;;;;;0.40;0.00;;;;;;;41.89;17.60;100515.45;112581;1196;137714;-74
2021/09/10 10:21:14;;;;;;;0.40;0.00;;;;;;;41.99;17.21;100516.95;112725;1204;94886;-74
2021/09/10 10:23:44;;;;;;;0.40;0.00;;;;;;;41.78;17.53;100516.73;112579;1204;137598;-73
2021/09/10 10:26:13;;;;;;;0.40;0.00;;;;;;;42.22;16.92;100517.13;112682;1204;99920;-74
2021/09/10 10:28:44;;;;;;;0.40;0.00;;;;;;;42.47;16.58;100509.96;112627;1198;101420;-73
2021/09/10 10:31:12;;;;;;;0.40;0.00;;;;;;;42.66;15.97;100508.20;112616;1198;137883;-73
2021/09/10 10:34:05;;;;;;;0.40;0.00;;;;;;;42.84;16.27;100506.80;112739;1197;94858;-73
2021/09/10 10:36:34;;;;;;;0.40;0.00;;;;;;;43.14;15.93;100504.98;112570;1204;137228;-74
2021/09/10 10:39:14;;;;;;;0.40;0.00;;;;;;;43.38;16.07;100506.89;112748;1195;109924;-74
2021/09/10 10:41:48;;;;;;;0.40;0.00;;;;;;;43.67;15.60;100507.34;112596;1198;137628;-74
2021/09/10 10:48:40;;;;;;;0.40;0.00;;;;;;;41.87;16.43;100506.67;112371;1204;138431;-73
2021/09/10 10:51:17;;;;;;;0.40;0.00;;;;;;;39.60;18.32;100507.30;112571;1198;100969;-73
2021/09/10 10:53:46;;;;;;;0.40;0.00;;;;;;;38.23;19.70;100504.52;112601;1198;138920;-74
2021/09/10 10:56:25;;;;;;;0.40;0.00;;;;;;;37.25;20.28;100507.86;112692;1198;94825;-73
2021/09/10 10:59:11;;;;;;;0.40;0.00;;;;;;;36.08;21.63;100502.59;112673;1204;100048;-73
2021/09/10 11:02:15;;;;;;;0.40;0.00;;;;;;;35.15;22.46;100495.29;112590;1205;136336;-73
2021/09/10 11:04:58;;;;;;;0.40;0.00;;;;;;;33.95;23.91;100492.06;112751;1204;94850;-73
2021/09/10 11:07:26;;;;;;;0.40;0.00;;;;;;;33.10;24.84;100506.17;112583;1204;137561;-73
2021/09/10 11:10:00;;;;;;;0.40;0.00;;;;;;;32.42;25.45;100502.73;112716;1204;100050;-71
2021/09/10 11:12:27;;;;;;;0.40;0.00;;;;;;;31.87;26.73;100499.88;112551;1203;137522;-72
2021/09/10 11:14:55;;;;;;;0.40;0.00;;;;;;;31.62;27.62;100493.64;112674;1204;94879;-72
2021/09/10 11:17:27;;;;;;;0.40;0.00;;;;;;;31.38;27.13;100495.77;112541;1198;138625;-72
2021/09/10 11:19:56;;;;;;;0.40;0.00;;;;;;;30.83;26.81;100495.73;112650;1204;100039;-72
2021/09/10 11:22:24;;;;;;;0.40;0.00;;;;;;;30.22;28.05;100496.41;112610;1205;100496;-72
2021/09/10 11:25:08;;;;;;;0.40;0.00;;;;;;;29.90;28.50;100498.75;112578;1198;137655;-72